Terminal Aerodrome Forecast
Issued by NWS

Current Version | Previous Version | Text Only | Print | Product List | Glossary On
Versions: 1 2 3 4 5 6 7 8 9 10 11 12
000
FTUS45 KVEF 041720
TAFVGT
TAF
KVGT 041720Z 0418/0518 17012G20KT P6SM FEW150
     FM042100 19017G24KT P6SM FEW150
     FM050300 19012KT P6SM FEW150=

USA.gov is the U.S. government's official web portal to all federal, state and local government web resources and services.